Time;durP1;ratioP1;P1;durP2;ratioP2;P2;SDS_P1;SDS_P2;PMS_P1;PMS_P2;Temp;Humidity;BMP_temperature;BMP_pressure;BME280_temperature;BME280_humidity;BME280_pressure;Samples;Min_cycle;Max_cycle;Signal;HPM_P1;HPM_P2
2023/12/14 00:01:52;;;;;;;3.13;2.40;;;;;;;;;;5010134;28;87685;-68
2023/12/14 00:04:21;;;;;;;3.47;2.13;;;;;;;;;;5019345;28;88442;-67
2023/12/14 00:06:50;;;;;;;3.47;2.80;;;;;;;;;;5019314;28;89239;-68
2023/12/14 00:16:22;;;;;;;3.20;2.40;;;;;;;;;;5061233;27;87803;-68
2023/12/14 00:18:50;;;;;;;2.97;1.90;;;;;;;;;;5060779;27;88961;-68
2023/12/14 00:21:19;;;;;;;3.50;1.90;;;;;;;;;;5061727;27;87506;-68
2023/12/14 00:23:50;;;;;;;2.60;1.60;;;;;;;;;;5061831;27;87644;-68
2023/12/14 00:26:19;;;;;;;2.30;1.80;;;;;;;;;;5062189;27;92230;-68
2023/12/14 00:32:26;;;;;;;3.47;2.10;;;;;;;;;;5060467;27;87460;-67
2023/12/14 00:35:22;;;;;;;4.40;2.60;;;;;;;;;;5059834;27;87974;-67
2023/12/14 00:37:51;;;;;;;2.37;2.17;;;;;;;;;;5070986;27;89657;-68
2023/12/14 00:40:20;;;;;;;2.70;2.20;;;;;;;;;;5079581;27;89126;-67
2023/12/14 00:42:48;;;;;;;3.20;2.27;;;;;;;;;;5062502;27;87491;-68
2023/12/14 00:45:17;;;;;;;2.77;2.30;;;;;;;;;;5061619;27;87619;-68
2023/12/14 00:47:45;;;;;;;4.03;2.30;;;;;;;;;;5061442;27;89685;-68
2023/12/14 00:50:13;;;;;;;3.33;2.33;;;;;;;;;;5061554;27;89106;-68
2023/12/14 00:52:42;;;;;;;4.67;3.70;;;;;;;;;;5062260;27;87329;-68
2023/12/14 00:55:10;;;;;;;4.70;2.57;;;;;;;;;;5061998;27;87595;-68
2023/12/14 00:57:40;;;;;;;4.23;2.53;;;;;;;;;;5061710;27;89607;-68
2023/12/14 01:00:10;;;;;;;3.60;2.70;;;;;;;;;;5061350;27;89110;-67
2023/12/14 01:02:39;;;;;;;3.63;2.80;;;;;;;;;;5061287;27;87339;-68
2023/12/14 01:05:07;;;;;;;3.87;3.10;;;;;;;;;;5061904;27;87489;-68
2023/12/14 01:07:36;;;;;;;7.47;3.67;;;;;;;;;;5061840;27;89713;-67
2023/12/14 01:10:05;;;;;;;4.40;3.20;;;;;;;;;;5061998;27;89078;-67
2023/12/14 01:12:57;;;;;;;5.60;3.43;;;;;;;;;;5062089;27;87323;-67
2023/12/14 01:18:55;;;;;;;5.27;2.93;;;;;;;;;;5032928;27;87889;-68
2023/12/14 01:21:41;;;;;;;5.50;3.50;;;;;;;;;;5064725;27;88119;-68
2023/12/14 01:24:09;;;;;;;4.80;3.50;;;;;;;;;;5064965;27;87352;-68
2023/12/14 01:26:39;;;;;;;5.17;3.30;;;;;;;;;;5064831;27;87627;-68
2023/12/14 01:29:18;;;;;;;3.73;3.17;;;;;;;;;;5064771;27;88601;-68
2023/12/14 01:31:46;;;;;;;5.30;3.87;;;;;;;;;;5064423;27;88958;-67
2023/12/14 01:37:48;;;;;;;4.20;3.17;;;;;;;;;;5064370;27;87397;-67
2023/12/14 01:40:17;;;;;;;5.13;3.03;;;;;;;;;;5064939;27;89794;-68
2023/12/14 01:42:48;;;;;;;4.30;2.70;;;;;;;;;;5064200;27;88023;-67
2023/12/14 01:45:20;;;;;;;4.07;3.03;;;;;;;;;;5064133;27;87834;-67
2023/12/14 01:47:48;;;;;;;3.00;2.47;;;;;;;;;;5064719;27;87537;-68
2023/12/14 01:50:17;;;;;;;6.83;3.20;;;;;;;;;;5064023;27;89902;-68
2023/12/14 01:52:49;;;;;;;2.97;2.30;;;;;;;;;;5063983;27;89604;-67
2023/12/14 01:55:20;;;;;;;3.10;2.80;;;;;;;;;;5064577;27;87326;-68
2023/12/14 01:57:48;;;;;;;3.40;2.57;;;;;;;;;;5064539;27;87665;-68
2023/12/14 02:00:21;;;;;;;3.87;2.77;;;;;;;;;;5064361;27;89599;-68
2023/12/14 02:02:50;;;;;;;4.20;3.30;;;;;;;;;;5060379;27;88255;-68
2023/12/14 02:05:19;;;;;;;3.70;2.50;;;;;;;;;;5063756;27;87518;-68
2023/12/14 02:07:51;;;;;;;4.53;2.60;;;;;;;;;;5061317;27;87545;-67
2023/12/14 02:10:20;;;;;;;4.87;2.90;;;;;;;;;;5059596;27;90016;-67
2023/12/14 02:12:48;;;;;;;2.97;2.13;;;;;;;;;;5063388;27;89017;-68
2023/12/14 02:15:16;;;;;;;4.27;2.43;;;;;;;;;;5063293;27;87550;-67
2023/12/14 02:17:50;;;;;;;3.20;2.20;;;;;;;;;;5063493;27;87620;-67
2023/12/14 02:20:18;;;;;;;2.80;2.03;;;;;;;;;;5063347;27;89766;-68
2023/12/14 02:23:11;;;;;;;4.20;2.27;;;;;;;;;;5063332;27;88728;-68
2023/12/14 02:25:39;;;;;;;2.73;2.10;;;;;;;;;;5048491;27;88146;-67
2023/12/14 02:28:26;;;;;;;2.73;2.07;;;;;;;;;;5061536;27;87629;-67
2023/12/14 02:31:04;;;;;;;3.07;2.20;;;;;;;;;;5063631;27;89671;-68
2023/12/14 02:33:33;;;;;;;2.73;2.53;;;;;;;;;;5062956;27;89209;-69
2023/12/14 02:36:03;;;;;;;3.53;2.30;;;;;;;;;;5063779;27;87546;-68
2023/12/14 02:38:33;;;;;;;4.07;2.53;;;;;;;;;;5064083;27;87514;-72
2023/12/14 02:41:02;;;;;;;2.33;2.10;;;;;;;;;;5063059;27;89639;-72
2023/12/14 02:43:31;;;;;;;4.63;2.30;;;;;;;;;;5062255;27;89133;-72
2023/12/14 02:46:02;;;;;;;3.50;2.37;;;;;;;;;;5016457;28;87679;-72
2023/12/14 02:55:30;;;;;;;3.60;2.40;;;;;;;;;;4950474;28;90532;-74
2023/12/14 02:57:59;;;;;;;2.23;1.90;;;;;;;;;;5022878;28;87455;-73
2023/12/14 03:00:27;;;;;;;4.23;2.50;;;;;;;;;;5021621;28;87472;-74
2023/12/14 03:02:57;;;;;;;5.03;2.17;;;;;;;;;;5022483;28;89630;-70
2023/12/14 03:05:28;;;;;;;3.40;2.37;;;;;;;;;;5022118;28;90228;-72
2023/12/14 03:07:56;;;;;;;1.83;1.73;;;;;;;;;;5021069;28;87584;-72
2023/12/14 03:16:56;;;;;;;2.77;1.77;;;;;;;;;;5009999;28;88929;-72
2023/12/14 03:19:24;;;;;;;2.53;1.73;;;;;;;;;;5023010;28;87343;-72
2023/12/14 03:21:53;;;;;;;2.13;1.93;;;;;;;;;;5022101;28;88577;-72
2023/12/14 03:24:22;;;;;;;3.77;2.47;;;;;;;;;;5020061;28;89676;-73
2023/12/14 03:26:54;;;;;;;2.83;2.20;;;;;;;;;;5020685;28;89025;-73
2023/12/14 03:29:22;;;;;;;2.07;1.87;;;;;;;;;;5018609;28;87456;-72
2023/12/14 03:31:51;;;;;;;4.17;2.37;;;;;;;;;;5013118;28;87737;-72
2023/12/14 03:34:21;;;;;;;3.57;2.37;;;;;;;;;;5021535;28;89613;-72
2023/12/14 03:43:44;;;;;;;3.30;2.17;;;;;;;;;;5018790;28;87627;-72
2023/12/14 03:46:16;;;;;;;3.07;2.63;;;;;;;;;;5025476;27;88628;-72
2023/12/14 03:48:44;;;;;;;3.53;2.43;;;;;;;;;;5019888;28;89130;-73
2023/12/14 03:54:04;;;;;;;3.93;3.20;;;;;;;;;;5021293;28;87175;-72
2023/12/14 03:56:36;;;;;;;3.90;2.63;;;;;;;;;;5023319;28;89780;-74
2023/12/14 03:59:04;;;;;;;3.40;2.43;;;;;;;;;;5021337;28;89064;-72
2023/12/14 04:01:33;;;;;;;4.60;2.20;;;;;;;;;;5021992;28;87381;-73
2023/12/14 04:04:05;;;;;;;2.87;2.50;;;;;;;;;;5022064;28;88270;-72
2023/12/14 04:06:45;;;;;;;4.10;2.50;;;;;;;;;;5002365;28;89670;-72
2023/12/14 04:12:36;;;;;;;3.20;2.40;;;;;;;;;;5001733;28;87477;-73
2023/12/14 04:15:07;;;;;;;4.43;3.13;;;;;;;;;;5001385;28;88819;-72
2023/12/14 04:17:36;;;;;;;5.37;2.57;;;;;;;;;;5032445;28;88322;-72
2023/12/14 04:20:11;;;;;;;4.00;3.17;;;;;;;;;;5019512;28;88227;-71
2023/12/14 04:22:41;;;;;;;4.10;3.10;;;;;;;;;;5021552;28;87503;-72
2023/12/14 04:25:10;;;;;;;6.47;3.50;;;;;;;;;;5021955;28;87758;-72
2023/12/14 04:27:39;;;;;;;5.30;3.27;;;;;;;;;;5021389;28;89669;-72
2023/12/14 04:30:10;;;;;;;3.47;2.67;;;;;;;;;;5021235;28;89102;-72
2023/12/14 04:33:14;;;;;;;4.97;2.83;;;;;;;;;;5021237;28;87445;-72
2023/12/14 04:39:15;;;;;;;4.67;3.43;;;;;;;;;;5021731;28;89821;-72
2023/12/14 04:41:56;;;;;;;6.57;3.37;;;;;;;;;;5021163;28;89219;-72
2023/12/14 04:44:24;;;;;;;8.13;3.63;;;;;;;;;;5021224;28;87502;-71
2023/12/14 04:53:19;;;;;;;5.13;3.80;;;;;;;;;;5038301;27;87371;-72
2023/12/14 04:55:55;;;;;;;5.60;3.70;;;;;;;;;;5062793;27;87475;-72
2023/12/14 04:58:24;;;;;;;5.17;4.33;;;;;;;;;;5063030;27;87650;-72
2023/12/14 05:00:53;;;;;;;6.57;4.23;;;;;;;;;;5064459;27;89797;-71
2023/12/14 05:03:21;;;;;;;5.77;4.07;;;;;;;;;;5064894;27;89218;-72
2023/12/14 05:05:57;;;;;;;8.40;4.97;;;;;;;;;;5064673;27;87510;-72
2023/12/14 05:08:27;;;;;;;6.00;4.23;;;;;;;;;;5064955;27;87420;-71
2023/12/14 05:10:58;;;;;;;9.40;4.53;;;;;;;;;;5064447;27;89672;-71
2023/12/14 05:13:27;;;;;;;7.67;3.93;;;;;;;;;;5064138;27;87953;-71
2023/12/14 05:15:57;;;;;;;7.30;4.50;;;;;;;;;;5064047;27;88106;-71
2023/12/14 05:18:25;;;;;;;8.03;4.20;;;;;;;;;;5064362;27;87507;-71
2023/12/14 05:24:16;;;;;;;5.97;3.47;;;;;;;;;;5062503;27;88683;-72
2023/12/14 05:27:11;;;;;;;5.00;3.90;;;;;;;;;;5063859;27;87436;-72
2023/12/14 05:29:41;;;;;;;5.70;3.90;;;;;;;;;;5063977;27;87782;-72
2023/12/14 05:32:10;;;;;;;9.00;4.27;;;;;;;;;;5063989;27;89250;-72
2023/12/14 05:34:38;;;;;;;7.33;4.13;;;;;;;;;;5063355;27;89122;-71
2023/12/14 05:37:07;;;;;;;5.83;4.20;;;;;;;;;;5064895;27;87446;-72
2023/12/14 05:39:35;;;;;;;7.93;3.63;;;;;;;;;;5064082;27;87678;-72
2023/12/14 05:42:04;;;;;;;5.07;3.57;;;;;;;;;;5063238;27;89652;-72
2023/12/14 05:44:32;;;;;;;6.17;3.77;;;;;;;;;;5062861;27;89423;-72
2023/12/14 05:47:34;;;;;;;6.20;3.77;;;;;;;;;;5064074;27;87439;-72
2023/12/14 05:50:26;;;;;;;5.33;3.50;;;;;;;;;;5063253;27;87376;-72
2023/12/14 05:52:55;;;;;;;5.43;3.90;;;;;;;;;;5063492;27;89601;-72
2023/12/14 05:55:23;;;;;;;5.50;3.63;;;;;;;;;;5063007;27;87921;-72
2023/12/14 05:58:18;;;;;;;4.77;3.27;;;;;;;;;;5063659;27;87418;-72
2023/12/14 06:01:03;;;;;;;3.33;3.03;;;;;;;;;;5024512;27;87611;-72
2023/12/14 06:03:34;;;;;;;4.37;3.10;;;;;;;;;;5063757;27;90054;-72
2023/12/14 06:06:04;;;;;;;5.87;3.27;;;;;;;;;;5062006;27;89027;-71
2023/12/14 06:08:32;;;;;;;4.10;2.97;;;;;;;;;;5063753;27;87485;-72
2023/12/14 06:11:05;;;;;;;5.07;2.73;;;;;;;;;;5063666;27;87440;-72
2023/12/14 06:13:38;;;;;;;5.87;2.97;;;;;;;;;;5063012;27;88579;-72
2023/12/14 06:20:15;;;;;;;3.77;2.93;;;;;;;;;;5060470;27;87444;-72
2023/12/14 06:22:45;;;;;;;3.93;2.63;;;;;;;;;;5056763;27;87700;-71
2023/12/14 06:25:13;;;;;;;6.33;3.43;;;;;;;;;;5059754;27;88527;-70
2023/12/14 06:27:44;;;;;;;4.50;3.27;;;;;;;;;;5062996;27;89181;-69
2023/12/14 06:30:14;;;;;;;4.37;3.10;;;;;;;;;;5063529;27;87663;-72
2023/12/14 06:32:44;;;;;;;3.97;2.70;;;;;;;;;;5062411;27;87579;-72
2023/12/14 06:35:15;;;;;;;3.80;2.70;;;;;;;;;;5063290;27;89540;-70
2023/12/14 06:37:48;;;;;;;9.13;6.07;;;;;;;;;;5062790;27;89120;-69
2023/12/14 06:40:16;;;;;;;22.50;9.83;;;;;;;;;;5062719;27;87358;-71
2023/12/14 06:42:44;;;;;;;10.60;8.47;;;;;;;;;;5062518;27;87603;-70
2023/12/14 06:45:15;;;;;;;77.43;29.80;;;;;;;;;;5061164;27;89572;-72
2023/12/14 06:51:25;;;;;;;90.37;31.63;;;;;;;;;;5061256;27;87536;-67
2023/12/14 06:53:55;;;;;;;64.73;25.00;;;;;;;;;;5061371;27;87466;-75
2023/12/14 06:56:25;;;;;;;54.63;23.20;;;;;;;;;;5058329;27;89700;-73
2023/12/14 06:58:53;;;;;;;22.27;10.33;;;;;;;;;;5058539;27;89150;-74
2023/12/14 07:01:22;;;;;;;19.40;10.17;;;;;;;;;;5061435;27;87665;-72
2023/12/14 07:03:50;;;;;;;17.27;8.67;;;;;;;;;;5062187;27;87392;-71
2023/12/14 07:06:19;;;;;;;36.43;11.83;;;;;;;;;;5061382;27;87547;-74
2023/12/14 07:08:47;;;;;;;24.73;11.67;;;;;;;;;;5060171;27;89248;-75
2023/12/14 07:11:18;;;;;;;27.97;11.23;;;;;;;;;;5024512;27;87643;-74
2023/12/14 07:18:04;;;;;;;19.37;9.40;;;;;;;;;;5060443;27;88250;-74
2023/12/14 07:20:33;;;;;;;16.90;8.53;;;;;;;;;;5051133;27;89120;-74
2023/12/14 07:23:02;;;;;;;20.30;8.73;;;;;;;;;;5059175;27;88005;-78
2023/12/14 07:25:31;;;;;;;25.43;9.00;;;;;;;;;;5062028;27;87538;-74
2023/12/14 07:28:02;;;;;;;16.50;8.10;;;;;;;;;;5061085;27;92451;-73
2023/12/14 07:30:31;;;;;;;13.40;6.50;;;;;;;;;;5057057;27;87828;-76
2023/12/14 07:32:59;;;;;;;11.73;6.17;;;;;;;;;;5051364;27;87507;-76
2023/12/14 07:35:28;;;;;;;16.00;5.13;;;;;;;;;;5062768;27;87615;-76
2023/12/14 07:37:56;;;;;;;9.00;3.63;;;;;;;;;;5061971;27;89652;-76
2023/12/14 07:40:25;;;;;;;9.97;3.80;;;;;;;;;;5062424;27;88048;-76
2023/12/14 07:42:56;;;;;;;8.37;4.60;;;;;;;;;;5061845;27;88478;-76
2023/12/14 07:45:26;;;;;;;9.50;4.63;;;;;;;;;;5059563;27;87646;-76
2023/12/14 07:47:54;;;;;;;11.77;4.37;;;;;;;;;;5061544;27;88553;-76
2023/12/14 07:50:23;;;;;;;5.37;3.30;;;;;;;;;;5061645;27;89200;-76
2023/12/14 07:52:53;;;;;;;7.40;3.97;;;;;;;;;;5062011;27;87523;-76
2023/12/14 07:55:22;;;;;;;7.80;3.37;;;;;;;;;;5061386;27;87763;-76
2023/12/14 08:01:38;;;;;;;5.37;3.23;;;;;;;;;;5051215;27;87386;-75
2023/12/14 08:04:22;;;;;;;5.83;3.33;;;;;;;;;;4856683;28;88920;-76
2023/12/14 08:06:56;;;;;;;5.57;3.00;;;;;;;;;;4945228;28;87604;-76
2023/12/14 08:09:27;;;;;;;6.80;2.97;;;;;;;;;;4926207;28;88700;-76
2023/12/14 08:11:56;;;;;;;3.07;1.93;;;;;;;;;;4959133;28;89471;-68
2023/12/14 08:14:25;;;;;;;5.73;1.97;;;;;;;;;;4958422;28;87665;-74
2023/12/14 08:16:53;;;;;;;4.97;2.70;;;;;;;;;;4956772;28;88736;-73
2023/12/14 08:19:23;;;;;;;9.93;3.10;;;;;;;;;;4957374;28;89771;-74
2023/12/14 08:21:51;;;;;;;4.20;2.00;;;;;;;;;;4958383;28;89132;-75
2023/12/14 08:24:20;;;;;;;5.80;1.83;;;;;;;;;;4958542;28;87620;-74
2023/12/14 08:30:23;;;;;;;3.93;2.27;;;;;;;;;;4937542;28;89565;-74
2023/12/14 08:32:52;;;;;;;4.13;2.17;;;;;;;;;;4955151;28;89030;-75
2023/12/14 08:35:22;;;;;;;2.77;2.20;;;;;;;;;;4955987;28;89227;-75
2023/12/14 08:37:54;;;;;;;5.30;1.97;;;;;;;;;;4959640;28;87496;-75
2023/12/14 08:40:23;;;;;;;6.40;2.03;;;;;;;;;;4977406;28;89733;-76
2023/12/14 08:42:51;;;;;;;2.00;1.80;;;;;;;;;;5045549;27;89089;-73
2023/12/14 08:45:21;;;;;;;3.57;1.90;;;;;;;;;;5061636;27;87470;-75
2023/12/14 08:47:50;;;;;;;14.93;9.40;;;;;;;;;;5061033;27;87651;-73
2023/12/14 08:50:18;;;;;;;25.90;11.00;;;;;;;;;;5062022;27;89710;-75
2023/12/14 08:52:48;;;;;;;27.83;11.33;;;;;;;;;;5059877;27;89097;-77
2023/12/14 09:01:56;;;;;;;13.10;6.93;;;;;;;;;;5048865;27;87826;-73
2023/12/14 09:04:27;;;;;;;9.40;6.03;;;;;;;;;;5069967;27;89256;-76
2023/12/14 09:06:58;;;;;;;8.60;5.67;;;;;;;;;;5063982;27;87539;-76
2023/12/14 09:09:42;;;;;;;10.63;6.07;;;;;;;;;;5022423;27;87689;-79
2023/12/14 09:12:10;;;;;;;7.53;4.63;;;;;;;;;;5061583;27;91691;-77
2023/12/14 09:14:48;;;;;;;6.47;4.10;;;;;;;;;;5061293;27;89034;-76
2023/12/14 09:17:16;;;;;;;8.73;4.60;;;;;;;;;;5012211;27;87771;-77
2023/12/14 09:19:45;;;;;;;7.77;3.70;;;;;;;;;;5061326;27;87623;-74
2023/12/14 09:25:48;;;;;;;6.43;3.53;;;;;;;;;;5060875;27;87529;-72
2023/12/14 09:32:02;;;;;;;7.73;3.03;;;;;;;;;;4982106;27;87631;-72
2023/12/14 09:38:00;;;;;;;3.20;2.50;;;;;;;;;;5016925;27;88867;-71
2023/12/14 09:40:29;;;;;;;3.83;2.77;;;;;;;;;;5063581;27;87274;-71
2023/12/14 09:43:00;;;;;;;4.80;2.73;;;;;;;;;;5075242;27;88065;-71
2023/12/14 09:45:35;;;;;;;4.73;2.60;;;;;;;;;;5070999;27;89807;-71
2023/12/14 09:48:03;;;;;;;6.00;2.47;;;;;;;;;;5065089;27;87921;-71
2023/12/14 09:50:34;;;;;;;3.80;2.30;;;;;;;;;;5078754;27;87346;-71
2023/12/14 09:57:01;;;;;;;5.03;1.90;;;;;;;;;;5054163;27;87696;-71
2023/12/14 09:59:37;;;;;;;6.30;2.13;;;;;;;;;;5071576;27;89091;-73
2023/12/14 10:02:11;;;;;;;5.87;1.90;;;;;;;;;;5067723;27;87516;-73
2023/12/14 10:04:41;;;;;;;2.33;2.07;;;;;;;;;;5077507;27;87747;-72
2023/12/14 10:07:10;;;;;;;2.30;1.53;;;;;;;;;;5074229;27;89766;-73
2023/12/14 10:09:41;;;;;;;3.10;1.80;;;;;;;;;;5079392;27;89097;-74
2023/12/14 10:12:13;;;;;;;2.87;1.97;;;;;;;;;;5066738;27;88790;-73
2023/12/14 10:14:42;;;;;;;4.03;2.27;;;;;;;;;;5076099;27;87701;-74
2023/12/14 10:17:18;;;;;;;1.53;1.30;;;;;;;;;;5071799;27;89577;-73
2023/12/14 10:19:49;;;;;;;7.87;1.70;;;;;;;;;;5061914;27;88247;-72
2023/12/14 10:22:18;;;;;;;3.10;1.33;;;;;;;;;;5063192;27;87517;-73
2023/12/14 10:24:51;;;;;;;2.03;1.20;;;;;;;;;;5071053;27;87655;-73
2023/12/14 10:27:21;;;;;;;2.43;1.53;;;;;;;;;;5070046;27;89592;-73
2023/12/14 10:33:23;;;;;;;2.70;1.33;;;;;;;;;;5062966;27;87559;-74
2023/12/14 10:35:53;;;;;;;2.67;1.50;;;;;;;;;;5067057;27;87659;-75
2023/12/14 10:38:22;;;;;;;2.50;1.10;;;;;;;;;;5068775;27;88411;-76
2023/12/14 10:41:12;;;;;;;2.37;1.27;;;;;;;;;;5053569;27;87878;-75
2023/12/14 10:43:41;;;;;;;3.33;1.10;;;;;;;;;;5061701;27;87534;-75
2023/12/14 10:46:19;;;;;;;1.07;0.80;;;;;;;;;;5062901;27;87695;-75
2023/12/14 10:48:52;;;;;;;2.63;0.97;;;;;;;;;;5067143;27;89769;-74
2023/12/14 10:51:24;;;;;;;3.67;1.23;;;;;;;;;;5070019;27;89057;-74
2023/12/14 10:57:25;;;;;;;0.80;0.73;;;;;;;;;;5066065;27;87891;-74
2023/12/14 11:03:35;;;;;;;1.63;0.97;;;;;;;;;;5062206;27;87536;-75
2023/12/14 11:06:17;;;;;;;1.27;0.70;;;;;;;;;;5065911;27;87568;-74
2023/12/14 11:12:36;;;;;;;1.00;0.90;;;;;;;;;;5071826;27;87820;-74
2023/12/14 11:15:35;;;;;;;4.53;1.00;;;;;;;;;;5014615;28;89099;-78
2023/12/14 11:18:27;;;;;;;7.37;1.10;;;;;;;;;;5012382;27;88056;-75
2023/12/14 11:20:56;;;;;;;1.43;0.80;;;;;;;;;;5066575;27;87480;-76
2023/12/14 11:23:30;;;;;;;2.27;1.17;;;;;;;;;;5074006;27;89558;-72
2023/12/14 11:26:21;;;;;;;1.20;0.73;;;;;;;;;;5068338;27;89102;-74
2023/12/14 11:28:49;;;;;;;0.83;0.70;;;;;;;;;;5058022;27;88147;-77
2023/12/14 11:31:20;;;;;;;0.63;0.57;;;;;;;;;;5068844;27;87585;-73
2023/12/14 11:33:52;;;;;;;1.57;1.10;;;;;;;;;;5069955;27;89656;-77
2023/12/14 11:36:21;;;;;;;0.50;0.50;;;;;;;;;;5071198;27;89273;-75
2023/12/14 11:42:18;;;;;;;1.07;0.80;;;;;;;;;;5065805;27;87631;-75
2023/12/14 11:44:48;;;;;;;0.97;0.90;;;;;;;;;;5058521;27;90280;-75
2023/12/14 11:51:01;;;;;;;10.77;3.50;;;;;;;;;;5059685;27;88469;-74
2023/12/14 11:53:32;;;;;;;9.60;3.57;;;;;;;;;;5074064;27;87607;-74
2023/12/14 11:56:02;;;;;;;400.53;233.53;;;;;;;;;;5072351;27;89660;-79
2023/12/14 11:58:33;;;;;;;558.60;264.30;;;;;;;;;;5068211;27;89067;-72
2023/12/14 12:01:12;;;;;;;422.80;178.63;;;;;;;;;;5073059;27;87476;-76
2023/12/14 12:03:43;;;;;;;436.67;186.10;;;;;;;;;;5062826;27;87753;-78
2023/12/14 12:06:20;;;;;;;306.63;136.33;;;;;;;;;;5069866;27;88506;-78
2023/12/14 12:08:49;;;;;;;252.03;111.13;;;;;;;;;;5060086;27;87833;-75
2023/12/14 12:11:18;;;;;;;188.80;88.50;;;;;;;;;;5071517;27;88807;-77
2023/12/14 12:13:53;;;;;;;159.50;74.70;;;;;;;;;;5070758;27;87611;-78
2023/12/14 12:16:22;;;;;;;155.47;65.87;;;;;;;;;;5074283;27;89509;-77
2023/12/14 12:18:51;;;;;;;133.57;63.83;;;;;;;;;;5063149;27;89060;-77
2023/12/14 12:21:20;;;;;;;125.67;58.03;;;;;;;;;;5060421;27;87504;-78
2023/12/14 12:23:48;;;;;;;106.53;49.97;;;;;;;;;;5077008;27;87452;-79
2023/12/14 12:26:17;;;;;;;97.73;48.73;;;;;;;;;;5065362;27;89591;-78
2023/12/14 12:28:47;;;;;;;108.37;48.20;;;;;;;;;;5053053;27;89162;-80
2023/12/14 12:31:18;;;;;;;91.80;46.00;;;;;;;;;;5061774;27;87719;-80
2023/12/14 12:33:47;;;;;;;93.50;39.50;;;;;;;;;;5059833;27;87527;-76
2023/12/14 12:36:15;;;;;;;83.87;37.30;;;;;;;;;;5066812;27;90016;-75
2023/12/14 12:38:43;;;;;;;72.03;33.67;;;;;;;;;;5064816;27;89395;-75
2023/12/14 12:41:12;;;;;;;78.40;32.73;;;;;;;;;;5066912;27;87523;-70
2023/12/14 12:43:40;;;;;;;58.00;27.90;;;;;;;;;;5061552;27;87663;-67
2023/12/14 12:46:08;;;;;;;59.83;30.23;;;;;;;;;;5065230;27;89357;-75
2023/12/14 12:48:39;;;;;;;55.87;25.53;;;;;;;;;;5063846;27;88997;-74
2023/12/14 12:51:11;;;;;;;59.73;25.30;;;;;;;;;;5060399;27;87456;-74
2023/12/14 12:53:40;;;;;;;51.97;22.30;;;;;;;;;;5063320;27;87588;-74
2023/12/14 12:56:09;;;;;;;50.00;23.50;;;;;;;;;;5064393;27;89731;-77
2023/12/14 12:58:40;;;;;;;46.63;22.87;;;;;;;;;;5062493;27;88880;-77
2023/12/14 13:01:08;;;;;;;38.10;21.43;;;;;;;;;;5058403;27;87469;-77
2023/12/14 13:03:38;;;;;;;38.63;19.13;;;;;;;;;;5061989;27;87600;-76
2023/12/14 13:06:06;;;;;;;31.77;17.47;;;;;;;;;;5055202;27;89668;-77
2023/12/14 13:08:36;;;;;;;41.70;19.97;;;;;;;;;;5071277;27;89229;-78
2023/12/14 13:11:04;;;;;;;28.10;16.70;;;;;;;;;;5058012;27;87494;-77
2023/12/14 13:13:33;;;;;;;35.10;18.67;;;;;;;;;;5060325;27;87819;-78
2023/12/14 13:16:01;;;;;;;36.90;16.03;;;;;;;;;;5061371;27;91574;-76
2023/12/14 13:18:30;;;;;;;28.23;15.37;;;;;;;;;;5062895;27;89425;-76
2023/12/14 13:21:00;;;;;;;25.07;14.87;;;;;;;;;;5065108;27;88148;-77
2023/12/14 13:23:29;;;;;;;25.60;14.87;;;;;;;;;;5068500;27;87577;-77
2023/12/14 13:25:57;;;;;;;30.30;13.43;;;;;;;;;;5080095;27;90079;-77
2023/12/14 13:28:26;;;;;;;19.57;11.77;;;;;;;;;;5070376;27;91487;-77
2023/12/14 13:30:55;;;;;;;32.63;12.17;;;;;;;;;;5058123;27;87715;-76
2023/12/14 13:33:24;;;;;;;24.47;11.27;;;;;;;;;;5058126;27;87587;-76
2023/12/14 13:35:56;;;;;;;18.57;10.17;;;;;;;;;;5073824;27;89908;-77
2023/12/14 13:38:25;;;;;;;18.70;8.87;;;;;;;;;;5069771;27;89148;-76
2023/12/14 13:40:54;;;;;;;12.83;8.73;;;;;;;;;;5072998;27;87480;-77
2023/12/14 13:43:22;;;;;;;17.63;8.73;;;;;;;;;;5078967;27;87557;-76
2023/12/14 13:45:52;;;;;;;16.47;8.33;;;;;;;;;;5067389;27;89603;-74
2023/12/14 13:48:40;;;;;;;20.47;8.50;;;;;;;;;;5064906;27;90632;-75
2023/12/14 13:51:09;;;;;;;20.07;8.50;;;;;;;;;;5061250;27;88328;-73
2023/12/14 13:53:39;;;;;;;14.77;8.47;;;;;;;;;;5064037;27;87779;-75
2023/12/14 13:56:08;;;;;;;19.43;7.20;;;;;;;;;;5062253;27;90071;-75
2023/12/14 13:58:38;;;;;;;9.53;6.23;;;;;;;;;;5062993;27;89055;-76
2023/12/14 14:01:07;;;;;;;12.77;6.83;;;;;;;;;;5063748;27;87751;-75
2023/12/14 14:03:37;;;;;;;15.53;5.93;;;;;;;;;;5059742;27;89126;-74
2023/12/14 14:06:06;;;;;;;11.00;5.83;;;;;;;;;;5066895;27;89651;-76
2023/12/14 14:08:35;;;;;;;11.13;5.80;;;;;;;;;;5068585;27;89447;-76
2023/12/14 14:11:05;;;;;;;12.00;6.13;;;;;;;;;;5072194;27;88914;-76
2023/12/14 14:13:38;;;;;;;9.93;5.13;;;;;;;;;;5071768;27;87599;-76
2023/12/14 14:16:07;;;;;;;9.10;5.57;;;;;;;;;;5079297;27;89715;-76
2023/12/14 14:18:36;;;;;;;7.73;4.57;;;;;;;;;;5066150;27;88889;-77
2023/12/14 14:21:07;;;;;;;9.67;5.20;;;;;;;;;;5058065;27;87760;-77
2023/12/14 14:23:36;;;;;;;13.20;5.87;;;;;;;;;;5069568;27;87511;-76
2023/12/14 14:26:07;;;;;;;8.80;4.87;;;;;;;;;;5066034;27;89654;-76
2023/12/14 14:28:37;;;;;;;7.87;4.83;;;;;;;;;;5064887;27;88069;-75
2023/12/14 14:31:05;;;;;;;9.00;4.87;;;;;;;;;;5077922;27;87609;-74
2023/12/14 14:33:35;;;;;;;7.93;5.17;;;;;;;;;;5063199;27;87534;-75
2023/12/14 14:36:05;;;;;;;11.00;5.10;;;;;;;;;;5063561;27;89721;-74
2023/12/14 14:38:34;;;;;;;9.87;4.43;;;;;;;;;;5066052;27;89054;-73
2023/12/14 14:41:04;;;;;;;6.40;5.03;;;;;;;;;;5068362;27;87570;-74
2023/12/14 14:43:34;;;;;;;7.47;4.33;;;;;;;;;;5068750;27;87740;-75
2023/12/14 14:46:02;;;;;;;10.20;4.37;;;;;;;;;;5069049;27;89650;-76
2023/12/14 14:48:31;;;;;;;5.77;3.97;;;;;;;;;;5073701;27;88975;-76
2023/12/14 14:50:59;;;;;;;9.53;4.30;;;;;;;;;;5057757;27;87813;-76
2023/12/14 14:53:29;;;;;;;5.70;3.90;;;;;;;;;;5075750;27;87579;-76
2023/12/14 14:55:59;;;;;;;12.03;4.70;;;;;;;;;;5072777;27;89587;-77
2023/12/14 14:58:29;;;;;;;9.47;4.83;;;;;;;;;;5066031;27;89289;-77
2023/12/14 15:00:59;;;;;;;8.73;4.77;;;;;;;;;;5076045;27;87570;-77
2023/12/14 15:03:27;;;;;;;7.47;5.03;;;;;;;;;;5076733;27;87467;-77
2023/12/14 15:05:57;;;;;;;8.37;4.50;;;;;;;;;;5068885;27;89859;-76
2023/12/14 15:08:27;;;;;;;9.50;5.63;;;;;;;;;;5078971;27;89405;-76
2023/12/14 15:10:57;;;;;;;9.27;5.53;;;;;;;;;;5067674;27;87437;-75
2023/12/14 15:13:28;;;;;;;7.57;5.20;;;;;;;;;;5072319;27;87930;-76
2023/12/14 15:15:56;;;;;;;10.03;5.57;;;;;;;;;;5076165;27;89649;-76
2023/12/14 15:18:26;;;;;;;10.83;5.80;;;;;;;;;;5077396;27;87804;-77
2023/12/14 15:20:55;;;;;;;10.27;5.90;;;;;;;;;;5077166;27;87552;-76
2023/12/14 15:23:24;;;;;;;13.50;5.37;;;;;;;;;;5055120;27;88226;-78
2023/12/14 15:25:52;;;;;;;9.30;6.23;;;;;;;;;;5061425;27;88496;-77
2023/12/14 15:28:20;;;;;;;8.70;5.60;;;;;;;;;;5077748;27;88770;-78
2023/12/14 15:30:49;;;;;;;9.03;6.27;;;;;;;;;;5066722;27;87456;-77
2023/12/14 15:33:18;;;;;;;12.03;7.30;;;;;;;;;;5072919;27;87460;-77
2023/12/14 15:35:48;;;;;;;12.70;7.07;;;;;;;;;;5074469;27;89769;-80
2023/12/14 15:38:17;;;;;;;10.60;7.37;;;;;;;;;;5064585;27;89770;-80
2023/12/14 15:40:47;;;;;;;10.10;8.07;;;;;;;;;;5067067;27;87575;-81
2023/12/14 15:43:15;;;;;;;14.17;8.43;;;;;;;;;;5066079;27;87645;-80
2023/12/14 15:45:44;;;;;;;11.93;6.63;;;;;;;;;;5066697;27;89762;-76
2023/12/14 15:48:12;;;;;;;11.40;7.70;;;;;;;;;;5049928;27;89122;-76
2023/12/14 15:50:42;;;;;;;12.67;8.47;;;;;;;;;;5045318;27;87614;-75
2023/12/14 15:53:12;;;;;;;10.77;7.90;;;;;;;;;;5060282;27;87321;-76
2023/12/14 15:55:41;;;;;;;14.87;8.03;;;;;;;;;;5060113;27;89885;-77
2023/12/14 15:58:11;;;;;;;12.53;7.87;;;;;;;;;;5063232;27;89264;-77
2023/12/14 16:00:40;;;;;;;11.63;9.10;;;;;;;;;;5078093;27;87534;-79
2023/12/14 16:03:09;;;;;;;13.93;8.47;;;;;;;;;;5069381;27;87590;-78
2023/12/14 16:05:38;;;;;;;22.07;10.37;;;;;;;;;;5069961;27;89706;-77
2023/12/14 16:08:07;;;;;;;16.30;9.00;;;;;;;;;;5076258;27;89414;-77
2023/12/14 16:10:38;;;;;;;24.47;9.37;;;;;;;;;;5065156;27;87441;-75
2023/12/14 16:13:06;;;;;;;28.77;8.73;;;;;;;;;;5074871;27;88071;-77
2023/12/14 16:15:36;;;;;;;20.13;9.37;;;;;;;;;;5072500;27;90077;-78
2023/12/14 16:18:06;;;;;;;24.03;9.13;;;;;;;;;;5061260;27;88339;-77
2023/12/14 16:20:34;;;;;;;20.23;8.43;;;;;;;;;;5071643;27;87485;-79
2023/12/14 16:23:03;;;;;;;19.80;7.90;;;;;;;;;;5048688;27;89023;-80
2023/12/14 16:25:32;;;;;;;22.67;8.47;;;;;;;;;;5049185;27;89740;-78
2023/12/14 16:28:02;;;;;;;18.77;7.17;;;;;;;;;;5076329;27;89483;-76
2023/12/14 16:30:31;;;;;;;10.53;6.17;;;;;;;;;;5075057;27;87601;-75
2023/12/14 16:32:59;;;;;;;17.43;6.70;;;;;;;;;;5061894;27;87461;-77
2023/12/14 16:35:30;;;;;;;10.83;5.30;;;;;;;;;;5054771;27;89707;-77
2023/12/14 16:37:58;;;;;;;8.60;4.63;;;;;;;;;;5049615;27;88997;-77
2023/12/14 16:40:30;;;;;;;11.17;5.10;;;;;;;;;;5052377;27;87516;-77
2023/12/14 16:42:59;;;;;;;9.43;5.27;;;;;;;;;;5042406;27;87515;-77
2023/12/14 16:45:29;;;;;;;11.17;4.87;;;;;;;;;;5060856;27;89714;-80
2023/12/14 16:47:57;;;;;;;10.37;4.23;;;;;;;;;;5060978;27;89111;-74
2023/12/14 16:50:26;;;;;;;5.57;3.43;;;;;;;;;;5067658;27;87557;-75
2023/12/14 16:52:55;;;;;;;6.23;3.03;;;;;;;;;;5070322;27;87728;-76
2023/12/14 16:55:23;;;;;;;5.73;3.87;;;;;;;;;;5060809;27;89805;-75
2023/12/14 16:57:52;;;;;;;11.43;3.70;;;;;;;;;;5060641;27;89239;-74